Terminal Aerodrome Forecast
Issued by NWS

Home | Current Version | Previous Version | Text Only | Print | Product List | Glossary On
Versions: 1 2 3 4 5 6 7 8 9 10 11 12 13 14 15 16 17 18 19 20 21 22 23 24 25 26 27 28 29 30 31 32 33 34 35 36 37 38 39
000
FTPA31 PHFO 041400 AAB
TAFOGG
TAF AMD
PHOG 041425Z 0414/0512 01010KT 6SM SHRA FEW008 SCT025 OVC035
      TEMPO 0414/0417 5SM -SHRA BKN008 OVC030
     FM041900 02010G15KT P6SM VCSH FEW013 SCT025 BKN040
     FM050200 03010KT P6SM VCSH SCT015 BKN030 OVC100
      AMD LTD TO WX VIS AND WIND TIL 041600=

USA.gov is the U.S. government's official web portal to all federal, state and local government web resources and services.